createdAt,value
2022-12-29T00:02:16.171Z,35.03
2022-12-29T00:04:43.795Z,36.60
2022-12-29T00:07:11.477Z,34.25
2022-12-29T00:09:38.915Z,35.67
2022-12-29T00:12:06.713Z,37.88
2022-12-29T00:14:52.516Z,33.10
2022-12-29T00:17:19.750Z,32.70
2022-12-29T00:20:05.762Z,34.88
2022-12-29T00:22:52.075Z,34.08
2022-12-29T00:25:38.263Z,36.38
2022-12-29T00:28:25.091Z,32.88
2022-12-29T00:31:11.068Z,36.33
2022-12-29T00:33:56.994Z,33.55
2022-12-29T00:36:29.291Z,28.98
2022-12-29T00:39:17.015Z,33.95
2022-12-29T00:42:04.371Z,31.70
2022-12-29T00:44:31.601Z,35.13
2022-12-29T00:47:03.456Z,33.70
2022-12-29T00:49:34.273Z,35.38
2022-12-29T00:52:12.345Z,31.90
2022-12-29T00:54:40.541Z,35.28
2022-12-29T00:57:09.004Z,34.80
2022-12-29T00:59:37.226Z,35.30
2022-12-29T01:02:04.582Z,33.28
2022-12-29T01:04:31.901Z,35.20
2022-12-29T01:06:59.292Z,32.25
2022-12-29T01:09:45.304Z,34.17
2022-12-29T01:12:13.230Z,35.08
2022-12-29T01:14:41.616Z,34.80
2022-12-29T01:17:09.021Z,35.15
2022-12-29T01:19:36.488Z,36.83
2022-12-29T01:22:03.659Z,34.33
2022-12-29T01:24:31.061Z,39.08
2022-12-29T01:26:58.399Z,32.40
2022-12-29T01:29:25.690Z,28.52
2022-12-29T01:31:53.134Z,31.25
2022-12-29T01:34:20.505Z,30.70
2022-12-29T01:36:47.979Z,32.20
2022-12-29T01:39:15.191Z,29.58
2022-12-29T01:41:43.696Z,28.17
2022-12-29T01:44:29.625Z,30.85
2022-12-29T01:46:56.998Z,32.28
2022-12-29T01:49:26.426Z,32.05
2022-12-29T01:51:55.840Z,35.88
2022-12-29T01:54:38.180Z,32.03
2022-12-29T01:57:08.400Z,30.58
2022-12-29T01:59:41.564Z,33.78
2022-12-29T02:02:09.285Z,32.90
2022-12-29T02:04:38.397Z,30.83
2022-12-29T02:07:09.713Z,29.75
2022-12-29T02:09:37.479Z,32.55
2022-12-29T02:12:05.428Z,29.73
2022-12-29T02:14:33.029Z,26.90
2022-12-29T02:17:18.947Z,22.85
2022-12-29T02:19:57.149Z,23.77
2022-12-29T02:22:37.041Z,20.40
2022-12-29T02:25:22.658Z,20.48
2022-12-29T02:27:52.769Z,24.42
2022-12-29T02:30:20.136Z,23.55
2022-12-29T02:33:03.007Z,21.77
2022-12-29T02:35:33.400Z,21.92
2022-12-29T02:38:01.143Z,25.33
2022-12-29T02:40:54.883Z,25.65
2022-12-29T02:43:42.329Z,21.50
2022-12-29T02:46:14.774Z,22.55
2022-12-29T02:48:45.226Z,24.98
2022-12-29T02:51:12.557Z,24.65
2022-12-29T02:53:58.761Z,28.42
2022-12-29T02:56:26.137Z,28.58
2022-12-29T02:58:53.447Z,28.02
2022-12-29T03:01:26.495Z,26.95
2022-12-29T03:03:53.797Z,26.60
2022-12-29T03:06:27.044Z,28.50
2022-12-29T03:09:01.948Z,28.58
2022-12-29T03:11:51.242Z,26.83
2022-12-29T03:14:44.200Z,34.70
2022-12-29T03:17:16.115Z,37.30
2022-12-29T03:19:48.670Z,32.20
2022-12-29T03:22:28.736Z,31.85
2022-12-29T03:25:08.545Z,20.27
2022-12-29T03:27:38.812Z,23.20
2022-12-29T03:30:07.243Z,25.98
2022-12-29T03:32:58.544Z,21.35
2022-12-29T03:35:27.701Z,22.42
2022-12-29T03:37:59.511Z,21.58
2022-12-29T03:40:28.065Z,21.88
2022-12-29T03:42:55.437Z,26.73
2022-12-29T03:45:22.706Z,25.70
2022-12-29T03:47:50.060Z,23.15
2022-12-29T03:50:17.587Z,25.02
2022-12-29T03:52:45.951Z,25.67
2022-12-29T03:55:13.175Z,21.13
2022-12-29T03:57:41.702Z,22.63
2022-12-29T04:00:09.271Z,24.20
2022-12-29T04:02:36.580Z,22.75
2022-12-29T04:05:04.220Z,22.15
2022-12-29T04:07:31.587Z,20.92
2022-12-29T04:09:58.985Z,21.95
2022-12-29T04:12:26.406Z,20.60
2022-12-29T04:14:53.823Z,21.73
2022-12-29T04:17:21.132Z,21.35
2022-12-29T04:19:48.671Z,25.95
2022-12-29T04:22:15.964Z,21.70
2022-12-29T04:24:43.171Z,25.55
2022-12-29T04:27:10.645Z,22.05
2022-12-29T04:29:37.884Z,20.73
2022-12-29T04:32:05.171Z,20.95
2022-12-29T04:34:32.560Z,19.75
2022-12-29T04:36:59.729Z,21.15
2022-12-29T04:39:27.059Z,20.92
2022-12-29T04:41:54.408Z,20.55
2022-12-29T04:44:21.713Z,21.15
2022-12-29T04:46:48.932Z,20.25
2022-12-29T04:49:16.311Z,22.00
2022-12-29T04:51:45.524Z,22.80
2022-12-29T04:54:12.728Z,22.63
2022-12-29T04:56:39.928Z,20.05
2022-12-29T04:59:07.479Z,20.50
2022-12-29T05:01:34.870Z,18.83
2022-12-29T05:04:02.375Z,22.35
2022-12-29T05:06:29.563Z,22.10
2022-12-29T05:08:56.717Z,19.67
2022-12-29T05:11:23.874Z,21.60
2022-12-29T05:13:51.025Z,20.00
2022-12-29T05:16:18.380Z,19.25
2022-12-29T05:18:46.081Z,22.00
2022-12-29T05:21:13.398Z,19.42
2022-12-29T05:23:40.692Z,21.02
2022-12-29T05:26:08.057Z,21.50
2022-12-29T05:28:35.632Z,20.60
2022-12-29T05:31:02.957Z,22.15
2022-12-29T05:33:30.281Z,19.10
2022-12-29T05:35:57.521Z,21.45
2022-12-29T05:38:24.735Z,20.60
2022-12-29T05:40:52.143Z,20.75
2022-12-29T05:43:19.293Z,21.55
2022-12-29T05:45:49.802Z,22.50
2022-12-29T05:48:17.107Z,22.23
2022-12-29T05:50:44.396Z,21.35
2022-12-29T05:53:11.729Z,21.48
2022-12-29T05:55:43.468Z,21.02
2022-12-29T05:58:14.353Z,21.05
2022-12-29T06:00:41.907Z,19.60
2022-12-29T06:03:09.321Z,23.95
2022-12-29T06:05:36.677Z,27.27
2022-12-29T06:08:04.150Z,25.20
2022-12-29T06:10:31.470Z,21.98
2022-12-29T06:12:58.852Z,20.92
2022-12-29T06:15:26.169Z,22.92
2022-12-29T06:17:53.405Z,22.33
2022-12-29T06:20:20.710Z,20.80
2022-12-29T06:22:48.101Z,20.73
2022-12-29T06:25:15.403Z,19.30
2022-12-29T06:27:42.884Z,23.38
2022-12-29T06:30:10.745Z,24.88
2022-12-29T06:32:38.431Z,21.45
2022-12-29T06:35:07.250Z,24.33
2022-12-29T06:37:34.575Z,24.02
2022-12-29T06:40:01.926Z,23.83
2022-12-29T06:42:29.433Z,22.27
2022-12-29T06:44:59.610Z,21.45
2022-12-29T06:47:26.939Z,23.27
2022-12-29T06:49:54.840Z,23.08
2022-12-29T06:52:22.108Z,29.20
2022-12-29T06:54:49.615Z,28.80
2022-12-29T06:57:17.072Z,22.52
2022-12-29T06:59:44.413Z,24.13
2022-12-29T07:02:12.784Z,23.23
2022-12-29T07:04:40.146Z,55.90
2022-12-29T07:07:07.800Z,46.08
2022-12-29T07:09:35.088Z,36.92
2022-12-29T07:12:02.629Z,27.50
2022-12-29T07:14:30.064Z,23.80
2022-12-29T07:16:57.473Z,22.05
2022-12-29T07:19:24.891Z,23.35
2022-12-29T07:21:52.175Z,20.30
2022-12-29T07:24:19.546Z,21.58
2022-12-29T07:26:46.843Z,19.02
2022-12-29T07:29:14.129Z,20.77
2022-12-29T07:31:41.542Z,30.65
2022-12-29T07:34:10.137Z,31.65
2022-12-29T07:36:37.491Z,30.45
2022-12-29T07:39:04.954Z,20.23
2022-12-29T07:41:32.280Z,19.27
2022-12-29T07:43:59.531Z,16.90
2022-12-29T07:46:56.460Z,20.95
2022-12-29T07:49:14.333Z,22.77
2022-12-29T07:51:41.675Z,20.20
2022-12-29T07:54:09.063Z,20.95
2022-12-29T07:56:36.490Z,20.88
2022-12-29T07:59:03.858Z,20.05
2022-12-29T08:01:31.270Z,22.58
2022-12-29T08:03:58.598Z,22.65
2022-12-29T08:06:26.003Z,22.73
2022-12-29T08:08:53.261Z,21.27
2022-12-29T08:11:21.058Z,23.35
2022-12-29T08:13:48.228Z,21.80
2022-12-29T08:16:15.852Z,21.63
2022-12-29T08:18:43.314Z,22.35
2022-12-29T08:21:10.596Z,19.67
2022-12-29T08:23:39.419Z,19.20
2022-12-29T08:26:07.276Z,24.85
2022-12-29T08:28:47.112Z,25.02
2022-12-29T08:31:18.341Z,22.00
2022-12-29T08:33:45.995Z,24.17
2022-12-29T08:39:16.277Z,26.25
2022-12-29T08:41:43.674Z,22.20
2022-12-29T08:44:25.363Z,23.75
2022-12-29T08:47:01.220Z,21.33
2022-12-29T08:50:37.685Z,25.23
2022-12-29T08:56:20.336Z,23.95
2022-12-29T09:02:23.865Z,25.05
2022-12-29T09:05:17.100Z,23.58
2022-12-29T09:11:03.202Z,25.52
2022-12-29T09:14:12.036Z,24.50
2022-12-29T09:17:24.735Z,26.45
2022-12-29T09:23:13.840Z,25.42
2022-12-29T09:32:55.032Z,23.25
2022-12-29T09:34:59.975Z,28.77
2022-12-29T09:37:27.280Z,26.13
2022-12-29T09:40:02.183Z,24.38
2022-12-29T09:42:34.583Z,22.60
2022-12-29T09:45:21.885Z,23.17
2022-12-29T09:47:51.573Z,25.58
2022-12-29T09:50:41.248Z,24.77
2022-12-29T09:53:32.955Z,22.58
2022-12-29T09:56:20.234Z,22.02
2022-12-29T09:59:30.460Z,23.77
2022-12-29T10:02:16.291Z,25.15
2022-12-29T10:04:43.844Z,22.58
2022-12-29T10:07:30.600Z,22.92
2022-12-29T10:10:04.578Z,22.63
2022-12-29T10:12:50.752Z,24.23
2022-12-29T10:15:20.673Z,26.45
2022-12-29T10:17:49.619Z,23.33
2022-12-29T10:20:19.591Z,22.27
2022-12-29T10:22:56.501Z,23.13
2022-12-29T10:25:31.199Z,23.13
2022-12-29T10:28:04.096Z,24.85
2022-12-29T10:30:31.412Z,25.02
2022-12-29T10:33:00.298Z,27.58
2022-12-29T10:35:32.568Z,24.70
2022-12-29T10:38:15.070Z,24.45
2022-12-29T10:40:45.054Z,23.73
2022-12-29T10:43:27.530Z,20.80
2022-12-29T10:45:56.511Z,25.13
2022-12-29T10:48:34.255Z,22.13
2022-12-29T10:51:06.804Z,19.48
2022-12-29T10:56:59.776Z,21.52
2022-12-29T10:59:29.319Z,34.85
2022-12-29T11:02:14.399Z,27.47
2022-12-29T11:05:00.411Z,26.23
2022-12-29T11:07:27.888Z,19.85
2022-12-29T11:10:24.473Z,24.58
2022-12-29T11:13:27.050Z,22.83
2022-12-29T11:16:17.359Z,22.35
2022-12-29T11:18:48.042Z,23.02
2022-12-29T11:21:31.479Z,20.77
2022-12-29T11:24:00.721Z,25.98
2022-12-29T11:26:33.824Z,26.77
2022-12-29T11:29:18.441Z,23.55
2022-12-29T11:31:51.860Z,21.45
2022-12-29T11:34:24.780Z,21.92
2022-12-29T11:36:53.277Z,22.75
2022-12-29T11:39:51.488Z,20.35
2022-12-29T11:42:28.063Z,16.98
2022-12-29T11:45:10.639Z,21.52
2022-12-29T11:47:39.462Z,22.02
2022-12-29T11:50:09.315Z,18.70
2022-12-29T11:52:41.521Z,20.88
2022-12-29T11:55:18.428Z,18.73
2022-12-29T11:57:48.309Z,19.58
2022-12-29T12:00:20.923Z,19.52
2022-12-29T12:03:12.057Z,20.80
2022-12-29T12:05:42.504Z,18.92
2022-12-29T12:08:21.107Z,21.63
2022-12-29T12:10:52.911Z,21.70
2022-12-29T12:13:20.181Z,19.15
2022-12-29T12:15:57.281Z,20.85
2022-12-29T12:18:39.620Z,22.02
2022-12-29T12:21:25.449Z,19.95
2022-12-29T12:24:02.136Z,16.40
2022-12-29T12:26:52.636Z,18.77
2022-12-29T12:29:28.943Z,19.40
2022-12-29T12:31:59.617Z,19.45
2022-12-29T12:34:26.860Z,20.23
2022-12-29T12:37:10.649Z,22.52
2022-12-29T12:39:56.840Z,20.00
2022-12-29T12:42:26.971Z,21.25
2022-12-29T12:45:12.997Z,20.98
2022-12-29T12:48:04.672Z,21.77
2022-12-29T12:50:41.125Z,19.45
2022-12-29T12:53:28.645Z,24.80
2022-12-29T12:56:10.831Z,20.58
2022-12-29T12:58:38.060Z,20.50
2022-12-29T13:01:05.369Z,19.25
2022-12-29T13:03:47.619Z,22.40
2022-12-29T13:06:14.937Z,22.40
2022-12-29T13:08:56.531Z,24.30
2022-12-29T13:11:26.936Z,21.05
2022-12-29T13:14:03.103Z,23.75
2022-12-29T13:16:45.300Z,21.13
2022-12-29T13:19:31.482Z,19.48
2022-12-29T13:22:06.989Z,19.70
2022-12-29T13:24:37.798Z,21.00
2022-12-29T13:27:37.113Z,23.60
2022-12-29T13:30:19.165Z,21.85
2022-12-29T13:32:58.974Z,22.10
2022-12-29T13:35:26.321Z,23.45
2022-12-29T13:37:59.477Z,21.67
2022-12-29T13:40:28.195Z,22.17
2022-12-29T13:42:56.988Z,23.80
2022-12-29T13:45:30.373Z,22.92
2022-12-29T13:48:02.210Z,21.80
2022-12-29T13:50:31.514Z,25.15
2022-12-29T13:53:19.416Z,27.90
2022-12-29T13:55:53.829Z,23.90
2022-12-29T13:58:53.746Z,26.98
2022-12-29T14:01:41.399Z,22.50
2022-12-29T14:04:14.398Z,22.17
2022-12-29T14:06:43.218Z,24.58
2022-12-29T14:09:36.375Z,23.00
2022-12-29T14:12:20.279Z,24.88
2022-12-29T14:14:47.516Z,27.25
2022-12-29T14:21:05.297Z,23.50
2022-12-29T14:24:01.114Z,29.30
2022-12-29T14:29:27.121Z,25.85
2022-12-29T14:31:57.266Z,23.73
2022-12-29T14:34:32.952Z,25.75
2022-12-29T14:37:03.874Z,23.92
2022-12-29T14:39:31.743Z,22.73
2022-12-29T14:42:02.833Z,26.35
2022-12-29T14:44:30.221Z,27.63
2022-12-29T14:46:59.112Z,27.00
2022-12-29T14:49:58.666Z,31.60
2022-12-29T14:52:48.471Z,32.55
2022-12-29T14:55:22.067Z,29.50
2022-12-29T14:57:51.366Z,36.75
2022-12-29T15:00:25.509Z,33.47
2022-12-29T15:03:06.911Z,34.42
2022-12-29T15:05:34.181Z,33.42
2022-12-29T15:08:02.058Z,33.97
2022-12-29T15:10:33.385Z,34.38
2022-12-29T15:13:05.766Z,43.67
2022-12-29T15:15:37.880Z,41.63
2022-12-29T15:18:25.118Z,38.85
2022-12-29T15:20:53.354Z,43.65
2022-12-29T15:23:20.637Z,43.30
2022-12-29T15:26:23.681Z,45.92
2022-12-29T15:28:55.730Z,45.85
2022-12-29T15:31:30.589Z,41.55
2022-12-29T15:34:11.485Z,46.55
2022-12-29T15:36:40.375Z,43.85
2022-12-29T15:39:29.220Z,47.03
2022-12-29T15:42:01.178Z,43.67
2022-12-29T15:44:38.614Z,49.75
2022-12-29T15:47:07.440Z,51.58
2022-12-29T15:49:34.927Z,50.78
2022-12-29T15:52:02.210Z,50.13
2022-12-29T15:54:32.026Z,49.58
2022-12-29T15:56:59.319Z,56.47
2022-12-29T15:59:29.385Z,54.47
2022-12-29T16:02:00.283Z,52.97
2022-12-29T16:04:29.771Z,45.83
2022-12-29T16:06:59.689Z,53.45
2022-12-29T16:09:46.155Z,58.05
2022-12-29T16:12:22.316Z,51.95
2022-12-29T16:14:52.457Z,52.75
2022-12-29T16:17:22.876Z,48.13
2022-12-29T16:19:52.608Z,54.10
2022-12-29T16:22:26.037Z,55.35
2022-12-29T16:25:05.444Z,53.33
2022-12-29T16:27:40.663Z,61.55
2022-12-29T16:30:10.688Z,52.80
2022-12-29T16:32:46.987Z,54.65
2022-12-29T16:35:14.359Z,51.47
2022-12-29T16:37:42.042Z,57.15
2022-12-29T16:40:33.377Z,61.60
2022-12-29T16:43:05.493Z,58.22
2022-12-29T16:45:58.983Z,56.78
2022-12-29T16:48:30.752Z,56.42
2022-12-29T16:51:16.791Z,54.08
2022-12-29T16:53:48.994Z,58.63
2022-12-29T16:56:22.099Z,58.08
2022-12-29T16:58:53.558Z,54.58
2022-12-29T17:01:21.045Z,54.60
2022-12-29T17:03:51.910Z,55.67
2022-12-29T17:06:20.154Z,64.95
2022-12-29T17:08:49.964Z,70.63
2022-12-29T17:12:00.408Z,113.40
2022-12-29T17:14:37.521Z,93.97
2022-12-29T17:17:06.046Z,94.40
2022-12-29T17:19:34.999Z,98.75
2022-12-29T17:22:02.853Z,92.32
2022-12-29T17:24:30.670Z,89.00
2022-12-29T17:26:59.252Z,84.32
2022-12-29T17:29:31.715Z,83.22
2022-12-29T17:31:59.469Z,83.82
2022-12-29T17:34:27.199Z,74.70
2022-12-29T17:36:54.593Z,65.13
2022-12-29T17:39:22.132Z,72.30
2022-12-29T17:41:50.057Z,75.35
2022-12-29T17:44:19.108Z,71.82
2022-12-29T17:46:47.067Z,70.65
2022-12-29T17:49:15.243Z,72.47
2022-12-29T17:51:43.672Z,72.88
2022-12-29T17:54:24.942Z,75.68
2022-12-29T17:56:54.293Z,73.95
2022-12-29T17:59:21.777Z,75.20
2022-12-29T18:01:49.882Z,79.45
2022-12-29T18:04:18.976Z,76.45
2022-12-29T18:06:46.844Z,76.18
2022-12-29T18:09:18.035Z,69.10
2022-12-29T18:11:49.215Z,62.85
2022-12-29T18:14:17.376Z,80.40
2022-12-29T18:16:44.802Z,79.55
2022-12-29T18:19:12.200Z,66.72
2022-12-29T18:21:40.467Z,66.55
2022-12-29T18:24:08.189Z,67.93
2022-12-29T18:26:37.685Z,72.15
2022-12-29T18:29:05.005Z,64.97
2022-12-29T18:31:33.543Z,73.35
2022-12-29T18:34:02.218Z,73.53
2022-12-29T18:36:29.503Z,76.18
2022-12-29T18:38:57.246Z,73.00
2022-12-29T18:41:57.254Z,75.25
2022-12-29T18:44:54.736Z,101.13
2022-12-29T18:47:31.021Z,86.13
2022-12-29T18:50:59.653Z,68.65
2022-12-29T18:53:19.929Z,81.07
2022-12-29T18:56:25.109Z,81.55
2022-12-29T19:08:58.587Z,78.88
2022-12-29T19:15:14.964Z,92.50
2022-12-29T19:18:46.531Z,85.68
2022-12-29T19:21:31.490Z,180.68
2022-12-29T19:30:52.994Z,82.13
2022-12-29T19:33:34.754Z,66.50
2022-12-29T19:37:11.766Z,68.88
2022-12-29T19:40:09.310Z,62.22
2022-12-29T19:42:37.500Z,62.22
2022-12-29T19:45:07.833Z,48.55
2022-12-29T19:47:35.613Z,51.83
2022-12-29T19:50:04.122Z,52.58
2022-12-29T19:52:32.270Z,56.53
2022-12-29T19:55:02.687Z,50.38
2022-12-29T19:57:35.727Z,51.30
2022-12-29T20:00:09.221Z,48.95
2022-12-29T20:02:37.917Z,50.38
2022-12-29T20:05:05.541Z,53.72
2022-12-29T20:07:33.145Z,52.15
2022-12-29T20:10:01.933Z,52.63
2022-12-29T20:12:29.691Z,48.03
2022-12-29T20:14:59.272Z,42.60
2022-12-29T20:17:53.916Z,48.95
2022-12-29T20:20:14.449Z,46.22
2022-12-29T20:22:41.863Z,44.70
2022-12-29T20:25:43.843Z,43.65
2022-12-29T20:27:56.908Z,42.67
2022-12-29T20:30:26.562Z,39.50
2022-12-29T20:32:56.359Z,42.40
2022-12-29T20:35:24.535Z,44.75
2022-12-29T20:37:53.515Z,48.38
2022-12-29T20:40:21.092Z,49.78
2022-12-29T20:42:49.065Z,43.33
2022-12-29T20:45:16.393Z,44.08
2022-12-29T20:47:43.645Z,43.28
2022-12-29T20:50:11.795Z,48.00
2022-12-29T20:52:39.227Z,40.25
2022-12-29T20:55:06.724Z,40.00
2022-12-29T20:57:49.960Z,54.72
2022-12-29T21:00:22.749Z,46.67
2022-12-29T21:02:51.072Z,42.28
2022-12-29T21:05:25.973Z,44.63
2022-12-29T21:07:54.187Z,43.15
2022-12-29T21:10:23.549Z,51.33
2022-12-29T21:12:51.355Z,43.13
2022-12-29T21:15:18.744Z,47.25
2022-12-29T21:17:47.671Z,44.85
2022-12-29T21:20:20.448Z,45.88
2022-12-29T21:22:49.354Z,52.65
2022-12-29T21:25:20.122Z,50.85
2022-12-29T21:27:52.624Z,53.95
2022-12-29T21:30:25.625Z,49.80
2022-12-29T21:32:53.161Z,40.55
2022-12-29T21:35:20.878Z,49.00
2022-12-29T21:37:50.320Z,46.15
2022-12-29T21:40:19.375Z,44.38
2022-12-29T21:42:46.735Z,41.72
2022-12-29T21:45:26.147Z,47.10
2022-12-29T21:48:13.305Z,39.40
2022-12-29T21:51:03.855Z,47.50
2022-12-29T21:53:41.287Z,41.45
2022-12-29T21:56:13.148Z,49.50
2022-12-29T21:59:00.263Z,47.33
2022-12-29T22:01:47.798Z,44.20
2022-12-29T22:04:35.561Z,41.88
2022-12-29T22:07:22.956Z,38.22
2022-12-29T22:10:08.829Z,39.17
2022-12-29T22:12:55.292Z,43.88
2022-12-29T22:15:28.577Z,43.80
2022-12-29T22:17:56.296Z,41.28
2022-12-29T22:20:28.601Z,40.40
2022-12-29T22:22:55.820Z,49.60
2022-12-29T22:25:23.682Z,46.10
2022-12-29T22:27:55.661Z,48.38
2022-12-29T22:30:27.464Z,46.15
2022-12-29T22:32:54.988Z,41.75
2022-12-29T22:35:22.261Z,45.33
2022-12-29T22:37:50.243Z,45.00
2022-12-29T22:40:17.579Z,50.72
2022-12-29T22:42:44.926Z,48.33
2022-12-29T22:45:16.225Z,46.92
2022-12-29T22:47:45.420Z,49.55
2022-12-29T22:50:13.356Z,47.67
2022-12-29T22:52:40.977Z,49.05
2022-12-29T22:55:08.997Z,44.67
2022-12-29T22:57:39.261Z,48.95
2022-12-29T23:00:10.768Z,49.03
2022-12-29T23:02:39.042Z,46.65
2022-12-29T23:05:08.419Z,48.03
2022-12-29T23:07:36.305Z,46.90
2022-12-29T23:10:07.459Z,46.75
2022-12-29T23:12:34.721Z,44.70
2022-12-29T23:15:02.274Z,40.70
2022-12-29T23:17:30.054Z,44.30
2022-12-29T23:19:57.387Z,41.28
2022-12-29T23:22:26.509Z,44.25
2022-12-29T23:24:53.532Z,38.58
2022-12-29T23:27:20.443Z,43.33
2022-12-29T23:29:48.313Z,44.53
2022-12-29T23:32:15.724Z,41.97
2022-12-29T23:34:43.155Z,44.70
2022-12-29T23:37:11.590Z,49.03
2022-12-29T23:39:38.566Z,48.83
2022-12-29T23:42:05.545Z,50.63
2022-12-29T23:44:32.534Z,49.60
2022-12-29T23:46:59.782Z,46.80
2022-12-29T23:49:27.241Z,44.60
2022-12-29T23:51:54.269Z,45.72
2022-12-29T23:54:21.514Z,43.28
2022-12-29T23:56:48.412Z,40.50
2022-12-29T23:59:15.546Z,43.33
